Time;durP1;ratioP1;P1;durP2;ratioP2;P2;SDS_P1;SDS_P2;PMS_P1;PMS_P2;Temp;Humidity;BMP_temperature;BMP_pressure;BME280_temperature;BME280_humidity;BME280_pressure;Samples;Min_cycle;Max_cycle;Signal;HPM_P1;HPM_P2
2021/06/15 00:02:24;;;;;;;8.00;4.90;;;;;;;9.83;79.23;96501.22;5094025;28;20058;-79
2021/06/15 00:04:50;;;;;;;8.63;5.10;;;;;;;9.83;79.23;96501.22;5091319;28;20028;-78
2021/06/15 00:07:15;;;;;;;8.20;4.90;;;;;;;9.59;79.79;96489.41;5094197;28;20533;-78
2021/06/15 00:09:41;;;;;;;6.55;4.97;;;;;;;9.59;79.79;96489.41;5093945;28;20041;-78
2021/06/15 00:12:09;;;;;;;9.05;5.13;;;;;;;9.44;80.27;96464.81;5092172;28;20114;-78
2021/06/15 00:14:37;;;;;;;8.85;5.10;;;;;;;9.62;81.10;96504.78;5092593;28;20020;-77
2021/06/15 00:17:04;;;;;;;7.53;4.95;;;;;;;9.90;80.50;96549.75;5093816;28;20073;-79
2021/06/15 00:19:30;;;;;;;7.93;5.68;;;;;;;9.90;80.50;96549.75;5092773;28;20036;-79
2021/06/15 00:21:55;;;;;;;11.05;6.32;;;;;;;9.37;78.81;96465.06;5092017;28;20440;-79
2021/06/15 00:24:21;;;;;;;8.40;6.90;;;;;;;9.37;78.81;96465.06;5092697;28;20111;-78
2021/06/15 00:26:47;;;;;;;11.55;6.75;;;;;;;9.58;80.60;96509.59;5092620;28;20020;-78
2021/06/15 00:29:13;;;;;;;9.05;6.50;;;;;;;9.58;80.70;96499.50;5093048;28;20032;-77
2021/06/15 00:31:38;;;;;;;7.50;5.32;;;;;;;9.45;79.34;96488.00;5092731;28;20125;-77
2021/06/15 00:34:04;;;;;;;6.13;4.95;;;;;;;9.47;80.66;96495.69;5093645;28;20066;-77
2021/06/15 00:36:30;;;;;;;5.95;5.03;;;;;;;9.29;80.16;96474.69;5092551;28;20035;-77
2021/06/15 00:38:55;;;;;;;9.38;4.88;;;;;;;9.29;80.16;96474.69;5092114;28;20024;-77
2021/06/15 00:41:21;;;;;;;6.47;4.60;;;;;;;9.16;80.40;96478.28;5092552;28;20055;-77
2021/06/15 00:43:46;;;;;;;8.68;4.72;;;;;;;9.27;80.55;96498.75;5092302;28;20370;-78
2021/06/15 00:46:12;;;;;;;7.03;4.85;;;;;;;9.19;80.41;96490.91;5093477;28;20024;-77
2021/06/15 00:48:38;;;;;;;9.52;4.85;;;;;;;8.93;79.46;96457.06;5092010;28;20056;-77
2021/06/15 00:51:05;;;;;;;7.70;5.57;;;;;;;9.61;80.97;96543.97;5093980;28;20028;-77
2021/06/15 00:53:35;;;;;;;7.75;5.47;;;;;;;9.61;80.97;96543.97;5097607;28;20020;-77
2021/06/15 00:56:01;;;;;;;9.90;4.97;;;;;;;9.28;79.86;96501.06;5096434;28;20093;-77
2021/06/15 00:58:26;;;;;;;7.60;4.78;;;;;;;9.27;80.45;96502.25;5096095;28;20471;-78
2021/06/15 01:00:52;;;;;;;5.97;4.65;;;;;;;9.27;80.45;96502.25;5096392;28;20031;-78
2021/06/15 01:03:20;;;;;;;8.55;4.45;;;;;;;9.27;80.45;96502.25;5097579;28;20293;-78
2021/06/15 01:05:47;;;;;;;7.03;4.60;;;;;;;9.27;80.45;96502.25;5095807;28;20035;-77
2021/06/15 01:08:50;;;;;;;8.40;4.60;;;;;;;9.27;80.45;96502.25;5097216;28;20089;-77
2021/06/15 01:11:40;;;;;;;7.53;4.78;;;;;;;9.27;80.45;96502.25;5097114;28;20085;-78
2021/06/15 01:14:06;;;;;;;7.38;4.60;;;;;;;9.27;80.45;96502.25;5097452;28;20062;-77
2021/06/15 01:16:43;;;;;;;7.57;4.68;;;;;;;9.54;80.92;96538.81;5095729;28;20028;-77
2021/06/15 01:19:23;;;;;;;7.72;4.95;;;;;;;9.61;80.84;96533.84;5076931;28;20038;-78
2021/06/15 01:22:30;;;;;;;9.27;4.97;;;;;;;9.61;80.84;96533.84;5073978;28;20401;-77
2021/06/15 01:24:59;;;;;;;8.50;4.80;;;;;;;9.49;80.84;96531.25;5074727;28;20420;-78
2021/06/15 01:27:40;;;;;;;10.80;5.25;;;;;;;9.26;80.76;96525.13;5076964;28;20206;-78
2021/06/15 01:30:09;;;;;;;8.55;4.90;;;;;;;9.33;80.86;96540.38;5075538;28;20032;-77
2021/06/15 01:32:37;;;;;;;7.53;4.55;;;;;;;9.16;81.25;96510.78;5074183;28;20119;-77
2021/06/15 01:35:06;;;;;;;10.65;5.82;;;;;;;9.16;81.25;96510.78;5075356;28;20025;-78
2021/06/15 01:37:52;;;;;;;8.75;4.82;;;;;;;9.32;79.58;96541.56;5075194;28;20439;-78
2021/06/15 01:40:36;;;;;;;7.93;4.88;;;;;;;9.10;100.00;96515.25;5095671;28;20050;-78
2021/06/15 01:43:12;;;;;;;7.05;4.90;;;;;;;9.10;80.34;96515.25;5096085;28;20031;-76
2021/06/15 01:45:42;;;;;;;23.30;5.93;;;;;;;9.16;81.23;96527.03;5096755;28;20024;-77
2021/06/15 01:48:13;;;;;;;8.30;4.82;;;;;;;9.08;80.97;96527.75;5095826;28;20016;-78
2021/06/15 01:50:42;;;;;;;9.70;4.60;;;;;;;9.07;82.10;96528.94;5093885;28;20036;-77
2021/06/15 01:53:15;;;;;;;10.48;4.70;;;;;;;8.82;81.28;96500.03;5095425;28;20024;-78
2021/06/15 01:56:04;;;;;;;10.68;4.85;;;;;;;9.02;81.56;96522.13;5095393;28;20027;-78
2021/06/15 01:58:33;;;;;;;6.85;5.07;;;;;;;8.54;81.58;96455.78;5095344;28;20025;-78
2021/06/15 02:00:59;;;;;;;7.20;5.10;;;;;;;8.53;81.35;96465.13;5095236;28;20442;-78
2021/06/15 02:03:26;;;;;;;9.95;5.28;;;;;;;8.47;82.25;96443.28;5093779;28;20028;-77
2021/06/15 02:05:58;;;;;;;8.90;5.10;;;;;;;8.48;81.45;96450.19;5095102;28;20024;-78
2021/06/15 02:08:34;;;;;;;8.23;4.72;;;;;;;8.95;82.26;96518.91;5095092;28;20450;-77
2021/06/15 02:11:01;;;;;;;6.53;4.43;;;;;;;8.71;80.64;96486.88;5094482;28;20327;-78
2021/06/15 02:13:29;;;;;;;7.55;4.00;;;;;;;8.71;80.64;96486.88;5096069;28;20023;-78
2021/06/15 02:15:57;;;;;;;5.75;3.75;;;;;;;8.71;80.64;96486.88;5095016;28;20069;-78
2021/06/15 02:18:24;;;;;;;6.00;4.18;;;;;;;8.65;81.66;96470.47;5094611;28;20020;-78
2021/06/15 02:20:50;;;;;;;5.68;3.85;;;;;;;8.72;79.92;96485.69;5094499;28;20054;-78
2021/06/15 02:23:22;;;;;;;6.00;3.65;;;;;;;8.61;80.65;96475.22;5094680;28;20382;-78
2021/06/15 02:25:52;;;;;;;4.85;3.58;;;;;;;8.77;80.80;96514.91;5094499;28;20023;-78
2021/06/15 02:28:19;;;;;;;8.45;3.83;;;;;;;8.77;80.80;96514.91;5095596;28;20104;-78
2021/06/15 02:30:45;;;;;;;6.88;4.10;;;;;;;8.41;81.49;96474.78;5094685;28;20062;-78
2021/06/15 02:33:14;;;;;;;5.43;3.63;;;;;;;8.55;81.63;96504.06;5095751;28;20063;-78
2021/06/15 02:35:47;;;;;;;4.32;3.47;;;;;;;8.58;80.26;96514.03;5092906;28;20439;-78
2021/06/15 02:38:18;;;;;;;6.30;4.20;;;;;;;8.34;82.19;96469.59;5095426;28;20056;-78
2021/06/15 02:40:43;;;;;;;6.72;4.60;;;;;;;8.28;81.60;96468.66;5093627;28;20024;-77
2021/06/15 02:43:12;;;;;;;8.00;4.90;;;;;;;8.19;82.24;96461.22;5091854;28;20032;-77
2021/06/15 02:45:40;;;;;;;9.63;4.93;;;;;;;8.53;82.34;96505.72;5081283;28;20039;-78
2021/06/15 02:48:07;;;;;;;11.05;4.80;;;;;;;8.24;82.09;96468.78;5084436;28;20408;-78
2021/06/15 02:50:36;;;;;;;13.75;4.80;;;;;;;8.16;82.36;96472.19;5072410;28;20029;-78
2021/06/15 02:53:10;;;;;;;5.60;4.47;;;;;;;8.19;82.26;96468.56;5073949;28;20077;-77
2021/06/15 02:55:50;;;;;;;7.60;4.80;;;;;;;8.44;82.15;96486.69;5073841;28;20020;-78
2021/06/15 02:58:16;;;;;;;6.15;4.63;;;;;;;8.22;81.72;96473.13;5089817;28;20044;-77
2021/06/15 03:00:41;;;;;;;8.18;4.60;;;;;;;8.10;81.61;96469.28;5089440;28;20032;-78
2021/06/15 03:03:07;;;;;;;9.52;4.78;;;;;;;8.05;81.94;96467.88;5089973;28;20409;-78
2021/06/15 03:05:34;;;;;;;10.68;5.07;;;;;;;8.32;82.66;96518.00;5093057;28;20103;-78
2021/06/15 03:08:00;;;;;;;6.50;4.50;;;;;;;7.57;82.88;96396.09;5093860;28;20044;-78
2021/06/15 03:10:26;;;;;;;7.60;4.75;;;;;;;7.79;82.06;96426.63;5093885;28;20020;-79
2021/06/15 03:12:59;;;;;;;8.65;4.80;;;;;;;8.18;82.77;96486.75;5094813;28;20054;-78
2021/06/15 03:15:49;;;;;;;8.98;5.03;;;;;;;8.37;82.12;96520.19;5095023;28;20063;-77
2021/06/15 03:18:35;;;;;;;6.43;4.75;;;;;;;8.26;83.11;96509.69;5081710;28;20039;-78
2021/06/15 03:21:09;;;;;;;8.60;4.80;;;;;;;8.23;82.36;96497.03;5093568;28;20396;-78
2021/06/15 03:23:53;;;;;;;11.40;5.18;;;;;;;8.36;83.61;96524.06;5093289;28;20111;-78
2021/06/15 03:26:47;;;;;;;6.85;4.07;;;;;;;8.39;83.40;96528.63;5093592;28;20062;-78
2021/06/15 03:29:23;;;;;;;6.03;4.30;;;;;;;8.33;82.43;96525.69;5073614;28;20300;-78
2021/06/15 03:31:53;;;;;;;6.78;4.75;;;;;;;8.16;83.62;96478.34;5056637;28;20052;-79
2021/06/15 03:34:28;;;;;;;8.88;5.10;;;;;;;8.26;82.65;96496.16;5073425;28;20324;-78
2021/06/15 03:36:56;;;;;;;10.10;5.88;;;;;;;8.15;82.82;96479.53;5074339;28;20128;-78
2021/06/15 03:39:24;;;;;;;10.80;6.40;;;;;;;8.59;81.85;96528.31;5073035;28;20043;-79
2021/06/15 03:41:55;;;;;;;10.38;6.35;;;;;;;8.50;82.17;96526.28;5082987;28;20031;-78
2021/06/15 03:44:22;;;;;;;9.25;6.82;;;;;;;8.50;82.17;96526.28;5072963;28;20324;-78
2021/06/15 03:46:51;;;;;;;9.57;6.28;;;;;;;8.50;82.17;96526.28;5087428;28;20412;-78
2021/06/15 03:49:21;;;;;;;13.10;7.78;;;;;;;8.26;80.76;96477.22;5084574;28;20059;-78
2021/06/15 03:51:51;;;;;;;9.95;7.82;;;;;;;8.26;80.76;96477.22;5091762;28;20407;-78
2021/06/15 03:54:17;;;;;;;;;;;;;;;8.26;80.76;96477.22;5093597;28;20054;-79
2021/06/15 03:56:45;;;;;;;12.35;8.43;;;;;;;8.26;80.76;96477.22;5093796;28;20310;-79
2021/06/15 03:59:14;;;;;;;11.93;7.35;;;;;;;8.95;80.88;96537.88;5093205;28;20034;-79
2021/06/15 04:01:41;;;;;;;8.30;7.03;;;;;;;8.95;80.88;96537.88;5093777;28;20031;-78
2021/06/15 04:04:14;;;;;;;6.93;4.70;;;;;;;-145.61;100.00;68426.72;5093945;28;20054;-78
2021/06/15 04:06:46;;;;;;;5.93;4.68;;;;;;;-145.61;100.00;68426.72;5087265;28;20036;-78
2021/06/15 04:09:13;;;;;;;7.00;4.07;;;;;;;-145.61;100.00;68426.72;5092937;28;20020;-78
2021/06/15 04:11:41;;;;;;;7.15;4.72;;;;;;;-145.61;100.00;68426.72;5091209;28;20104;-79
2021/06/15 04:14:10;;;;;;;6.18;5.13;;;;;;;-145.61;100.00;68426.72;5088475;28;20028;-78
2021/06/15 04:16:38;;;;;;;10.32;5.10;;;;;;;8.95;80.88;96537.88;5092576;28;20491;-78
2021/06/15 04:19:08;;;;;;;8.98;4.95;;;;;;;8.95;80.88;96537.88;5092636;28;20028;-78
2021/06/15 04:21:36;;;;;;;10.20;4.97;;;;;;;-145.61;100.00;68426.72;5089070;28;20193;-77
2021/06/15 04:24:03;;;;;;;8.90;4.57;;;;;;;-145.61;100.00;68426.72;5087339;28;20032;-77
2021/06/15 04:26:34;;;;;;;8.90;4.75;;;;;;;-145.61;100.00;68426.72;5093063;28;20028;-78
2021/06/15 04:29:00;;;;;;;7.55;4.80;;;;;;;-145.61;100.00;68426.72;5090759;28;20066;-78
2021/06/15 04:31:29;;;;;;;11.02;5.70;;;;;;;-145.61;100.00;68426.72;5093525;28;20028;-78
2021/06/15 04:33:56;;;;;;;9.38;5.25;;;;;;;-145.61;100.00;68426.72;5080540;28;20115;-79
2021/06/15 04:36:21;;;;;;;8.35;5.38;;;;;;;-145.61;100.00;68426.72;5072478;28;20074;-78
2021/06/15 04:38:58;;;;;;;10.55;5.10;;;;;;;-145.61;100.00;68426.72;5072683;28;20344;-78
2021/06/15 04:41:43;;;;;;;7.85;4.43;;;;;;;-145.61;100.00;68426.72;5072014;28;20036;-78
2021/06/15 04:44:16;;;;;;;9.52;4.80;;;;;;;-145.61;100.00;68426.72;5090271;28;20024;-79
2021/06/15 04:46:48;;;;;;;7.82;4.82;;;;;;;-145.61;100.00;68426.72;5092480;28;20115;-79
2021/06/15 04:49:36;;;;;;;9.30;4.90;;;;;;;-145.61;100.00;68426.72;5092128;28;20028;-79
2021/06/15 04:52:04;;;;;;;13.85;5.20;;;;;;;-145.61;100.00;68426.72;5093453;28;20439;-79
2021/06/15 04:54:35;;;;;;;11.35;4.90;;;;;;;-145.61;100.00;68426.72;5092073;28;20025;-79
2021/06/15 04:57:05;;;;;;;;;;;;;;;-145.61;100.00;68426.72;5092263;28;20253;-78
2021/06/15 04:59:33;;;;;;;7.68;4.60;;;;;;;-145.61;100.00;68426.72;5080617;28;19991;-78
2021/06/15 05:01:59;;;;;;;9.63;4.68;;;;;;;-145.61;100.00;68426.72;5090214;28;20028;-78
2021/06/15 05:04:26;;;;;;;12.13;4.53;;;;;;;-145.61;100.00;68426.72;5090800;28;20051;-78
2021/06/15 05:06:53;;;;;;;10.90;5.05;;;;;;;-145.61;100.00;68426.72;5087463;28;20473;-78
2021/06/15 05:09:24;;;;;;;9.90;5.28;;;;;;;-145.61;100.00;68426.72;5084559;28;20331;-78
2021/06/15 05:11:53;;;;;;;10.52;5.25;;;;;;;-145.61;100.00;68426.72;5086212;28;20107;-78
2021/06/15 05:14:22;;;;;;;12.43;5.53;;;;;;;-145.61;100.00;68426.72;5083696;28;20308;-78
2021/06/15 05:16:47;;;;;;;16.70;6.10;;;;;;;-145.61;100.00;68426.72;5085549;28;20035;-77
2021/06/15 05:19:13;;;;;;;11.80;6.10;;;;;;;-145.61;100.00;68426.72;5071399;28;20033;-78
2021/06/15 05:21:53;;;;;;;14.93;6.60;;;;;;;-145.61;100.00;68426.72;5085728;28;20075;-78
2021/06/15 05:24:49;;;;;;;17.05;7.28;;;;;;;-145.61;100.00;68426.72;5071923;28;20405;-78
2021/06/15 05:27:17;;;;;;;13.70;6.78;;;;;;;-145.61;100.00;68426.72;5074836;28;20021;-78
2021/06/15 05:29:43;;;;;;;12.15;6.22;;;;;;;-145.61;100.00;68426.72;5093140;28;20083;-78
2021/06/15 05:32:10;;;;;;;17.80;6.75;;;;;;;-145.61;100.00;68426.72;5091505;28;20028;-78
2021/06/15 05:34:36;;;;;;;13.15;5.88;;;;;;;-145.61;100.00;68426.72;5092039;28;20024;-78
2021/06/15 05:37:03;;;;;;;11.82;6.10;;;;;;;-145.61;100.00;68426.72;5093288;28;20301;-78
2021/06/15 05:39:30;;;;;;;10.65;5.20;;;;;;;-145.61;100.00;68426.72;5091568;28;20084;-78
2021/06/15 05:41:56;;;;;;;12.63;5.47;;;;;;;-145.61;100.00;68426.72;5095207;28;20377;-78
2021/06/15 05:44:21;;;;;;;10.65;4.80;;;;;;;-145.61;100.00;68426.72;5096659;28;20099;-79
2021/06/15 05:46:47;;;;;;;9.60;5.05;;;;;;;-145.61;100.00;68426.72;5095487;28;20030;-79
2021/06/15 05:49:12;;;;;;;9.27;4.70;;;;;;;-145.61;100.00;68426.72;5093767;28;20024;-78
2021/06/15 05:51:39;;;;;;;8.23;4.63;;;;;;;-145.61;100.00;68426.72;5095425;28;20028;-79
2021/06/15 05:54:06;;;;;;;9.98;4.60;;;;;;;-145.61;100.00;68426.72;5095259;28;20511;-79
2021/06/15 05:56:32;;;;;;;8.43;4.47;;;;;;;-145.61;100.00;68426.72;5095208;28;20039;-78
2021/06/15 05:58:57;;;;;;;6.35;4.53;;;;;;;-145.61;100.00;68426.72;5093506;28;20030;-78
2021/06/15 06:01:23;;;;;;;10.10;5.13;;;;;;;-145.61;100.00;68426.72;5095072;28;20733;-79
2021/06/15 06:03:58;;;;;;;12.02;5.60;;;;;;;-145.61;100.00;68426.72;5095634;28;20027;-79
2021/06/15 06:09:07;;;;;;;11.95;5.22;;;;;;;-145.61;100.00;68426.72;5096210;28;20077;-78
2021/06/15 06:11:33;;;;;;;10.20;5.28;;;;;;;-145.61;100.00;68426.72;5095517;28;20020;-78
2021/06/15 06:13:59;;;;;;;11.63;4.43;;;;;;;-145.61;100.00;68426.72;5094030;28;20779;-79
2021/06/15 06:16:25;;;;;;;7.53;3.97;;;;;;;-145.61;100.00;68426.72;5094882;28;20366;-78
2021/06/15 06:18:50;;;;;;;5.57;4.00;;;;;;;-145.61;100.00;68426.72;5091711;28;20059;-78
2021/06/15 06:21:16;;;;;;;7.10;4.13;;;;;;;-145.61;100.00;68426.72;5074989;28;20438;-78
2021/06/15 06:23:41;;;;;;;7.63;4.57;;;;;;;-145.61;100.00;68426.72;5089623;28;20032;-79
2021/06/15 06:26:08;;;;;;;9.25;4.55;;;;;;;-145.61;100.00;68426.72;5094287;28;20028;-78
2021/06/15 06:28:33;;;;;;;8.38;4.47;;;;;;;-145.61;100.00;68426.72;5086866;28;20035;-78
2021/06/15 06:30:59;;;;;;;7.85;4.50;;;;;;;-145.61;100.00;68426.72;5089621;28;20103;-78
2021/06/15 06:33:25;;;;;;;7.28;4.43;;;;;;;-145.61;100.00;68426.72;5075498;28;20048;-78
2021/06/15 06:35:51;;;;;;;10.00;4.78;;;;;;;-145.61;100.00;68426.72;5093636;28;20780;-78
2021/06/15 06:38:17;;;;;;;7.85;4.90;;;;;;;8.95;80.88;96537.88;5093659;28;20082;-78
2021/06/15 06:40:42;;;;;;;10.25;5.03;;;;;;;-145.61;100.00;68426.72;5094677;28;20030;-78
2021/06/15 06:43:09;;;;;;;10.65;5.10;;;;;;;8.95;80.88;96537.88;5095374;28;20051;-78
2021/06/15 06:45:36;;;;;;;12.35;4.90;;;;;;;8.95;80.88;96537.88;5095414;28;20404;-78
2021/06/15 06:48:04;;;;;;;12.25;4.95;;;;;;;13.06;69.14;96481.22;5093390;28;20020;-78
2021/06/15 06:50:29;;;;;;;15.10;5.13;;;;;;;13.22;68.91;96490.91;5094799;28;20150;-78
2021/06/15 06:52:55;;;;;;;12.77;4.78;;;;;;;12.92;69.00;96429.41;5093953;28;20116;-78
2021/06/15 06:55:22;;;;;;;7.97;4.53;;;;;;;13.61;67.91;96548.06;5092168;28;20425;-78
2021/06/15 06:57:50;;;;;;;10.20;4.75;;;;;;;13.59;68.07;96523.97;5086280;28;20074;-78
2021/06/15 07:00:16;;;;;;;10.63;4.32;;;;;;;13.62;67.93;96514.09;5087788;28;20028;-78
2021/06/15 07:02:42;;;;;;;6.38;4.10;;;;;;;13.70;66.36;96526.13;5094627;28;20059;-78
2021/06/15 07:05:08;;;;;;;12.70;4.55;;;;;;;13.61;67.79;96496.22;5092551;28;20024;-78
2021/06/15 07:07:34;;;;;;;9.35;4.35;;;;;;;13.49;66.74;96456.34;5093196;28;20319;-78
2021/06/15 07:10:00;;;;;;;9.73;4.63;;;;;;;13.80;65.72;96497.50;5092166;28;20024;-78
2021/06/15 07:12:25;;;;;;;11.43;4.15;;;;;;;14.22;66.35;96537.25;5091090;28;20020;-78
2021/06/15 07:14:51;;;;;;;8.55;4.45;;;;;;;14.32;65.79;96519.50;5091327;28;20039;-78
2021/06/15 07:17:16;;;;;;;10.63;4.03;;;;;;;14.24;65.61;96502.03;5094435;28;20024;-78
2021/06/15 07:19:42;;;;;;;9.43;3.72;;;;;;;13.77;66.94;96421.25;5088234;28;20024;-78
2021/06/15 07:22:08;;;;;;;13.40;4.40;;;;;;;14.50;66.33;96504.09;5089568;28;20090;-78
2021/06/15 07:24:34;;;;;;;5.78;3.80;;;;;;;14.52;64.15;96507.84;5081007;28;20127;-78
2021/06/15 07:27:00;;;;;;;7.57;3.95;;;;;;;14.58;64.05;96497.72;5092414;28;20016;-78
2021/06/15 07:29:26;;;;;;;8.48;3.38;;;;;;;14.88;63.72;96525.63;5093718;28;20361;-78
2021/06/15 07:31:53;;;;;;;6.22;3.28;;;;;;;14.67;63.14;96475.69;5088270;28;20107;-78
2021/06/15 07:34:19;;;;;;;7.32;3.53;;;;;;;14.92;62.71;96498.81;5093543;28;20020;-78
2021/06/15 07:36:44;;;;;;;7.85;3.72;;;;;;;15.01;62.78;96502.59;5089282;28;20029;-78
2021/06/15 07:39:10;;;;;;;7.40;3.92;;;;;;;15.15;62.02;96520.91;5079138;28;20034;-78
2021/06/15 07:41:38;;;;;;;7.80;3.35;;;;;;;14.98;62.19;96465.31;5073566;28;20028;-78
2021/06/15 07:44:05;;;;;;;8.00;3.55;;;;;;;15.43;60.64;96516.41;5080013;28;20052;-78
2021/06/15 07:46:31;;;;;;;4.57;3.47;;;;;;;15.20;61.96;96468.97;5093042;28;20031;-78
2021/06/15 07:48:57;;;;;;;5.80;3.38;;;;;;;15.44;60.55;96487.03;5093099;28;20319;-77
2021/06/15 07:51:23;;;;;;;6.00;3.17;;;;;;;15.44;62.08;96476.84;5092744;28;20070;-78
2021/06/15 07:53:49;;;;;;;7.45;3.72;;;;;;;15.38;60.31;96439.75;5094289;28;20024;-78
2021/06/15 07:56:16;;;;;;;11.43;3.42;;;;;;;15.39;59.77;96427.56;5093118;28;20032;-78
2021/06/15 07:58:41;;;;;;;6.25;3.15;;;;;;;15.52;59.61;96422.44;5092530;28;20081;-78
2021/06/15 08:01:07;;;;;;;6.35;3.08;;;;;;;15.98;61.42;96479.72;5091336;28;20020;-78
2021/06/15 08:03:33;;;;;;;6.28;3.40;;;;;;;16.12;60.51;96480.75;5092037;28;20118;-78
2021/06/15 08:05:58;;;;;;;10.23;5.25;;;;;;;16.15;61.25;96476.31;5094026;28;20031;-78
2021/06/15 08:08:24;;;;;;;11.98;7.03;;;;;;;16.08;61.05;96452.84;5091361;28;20026;-78
2021/06/15 08:10:49;;;;;;;7.97;4.07;;;;;;;16.31;59.75;96474.88;5093902;28;20492;-78
2021/06/15 08:13:15;;;;;;;9.75;3.78;;;;;;;16.01;59.56;96414.22;5093731;28;20024;-78
2021/06/15 08:15:41;;;;;;;7.88;3.45;;;;;;;16.31;58.61;96442.00;5080567;28;20070;-78
2021/06/15 08:18:07;;;;;;;7.95;3.63;;;;;;;16.29;58.90;96428.75;5076089;28;20085;-78
2021/06/15 08:20:35;;;;;;;7.57;4.00;;;;;;;16.85;59.31;96488.50;5092493;28;20024;-78
2021/06/15 08:23:01;;;;;;;12.80;4.07;;;;;;;16.34;58.55;96411.59;5090571;28;20538;-78
2021/06/15 08:25:26;;;;;;;10.60;3.97;;;;;;;17.00;57.60;96481.53;5089515;28;20027;-78
2021/06/15 08:27:52;;;;;;;7.38;3.28;;;;;;;16.75;57.53;96420.16;5092695;28;20055;-78
2021/06/15 08:30:18;;;;;;;7.70;3.30;;;;;;;17.06;57.61;96434.91;5092809;28;20414;-78
2021/06/15 08:32:43;;;;;;;8.68;3.13;;;;;;;17.33;54.21;96480.06;5077408;28;20028;-78
2021/06/15 08:35:10;;;;;;;5.75;2.83;;;;;;;17.10;55.10;96426.41;5089101;28;20050;-78
2021/06/15 08:37:36;;;;;;;4.82;2.95;;;;;;;17.43;54.93;96461.34;5091001;28;20031;-79
2021/06/15 08:40:04;;;;;;;6.93;3.33;;;;;;;17.42;54.65;96448.88;5090345;28;20016;-78
2021/06/15 08:42:30;;;;;;;4.57;2.70;;;;;;;17.28;53.26;96426.66;5090779;28;20328;-78
2021/06/15 08:44:56;;;;;;;6.60;2.60;;;;;;;17.43;51.81;96422.91;5091472;28;20028;-78
2021/06/15 08:47:21;;;;;;;6.80;2.60;;;;;;;17.56;52.93;96414.88;5090150;28;20361;-78
2021/06/15 08:49:47;;;;;;;6.32;2.70;;;;;;;17.81;54.13;96443.31;5090933;28;20026;-78
2021/06/15 08:52:14;;;;;;;9.55;3.35;;;;;;;17.88;52.91;96442.03;5090113;28;20024;-78
2021/06/15 08:54:40;;;;;;;9.15;2.88;;;;;;;17.80;53.54;96414.34;5091808;28;20412;-80
2021/06/15 08:57:06;;;;;;;4.75;3.08;;;;;;;17.66;52.74;96377.66;5091536;28;20046;-80
2021/06/15 08:59:32;;;;;;;9.02;2.95;;;;;;;18.05;52.17;96415.25;5089870;28;20111;-79
2021/06/15 09:02:05;;;;;;;4.95;2.60;;;;;;;18.02;52.34;96399.78;5082240;28;20020;-78
2021/06/15 09:04:33;;;;;;;5.18;2.60;;;;;;;18.19;50.38;96410.69;5092113;28;20024;-79
2021/06/15 09:06:58;;;;;;;4.03;2.50;;;;;;;18.52;49.06;96434.50;5086495;28;20020;-78
2021/06/15 09:09:53;;;;;;;3.78;2.40;;;;;;;18.64;47.99;96437.94;5070750;28;20101;-78
2021/06/15 09:12:21;;;;;;;6.32;2.75;;;;;;;18.74;50.36;96420.66;5057352;28;20040;-78
2021/06/15 09:14:50;;;;;;;6.57;2.70;;;;;;;18.98;47.21;96444.75;5095013;28;20442;-78
2021/06/15 09:17:32;;;;;;;5.35;2.30;;;;;;;18.88;51.49;96415.31;5092423;28;20020;-78
2021/06/15 09:20:09;;;;;;;5.57;2.55;;;;;;;18.97;49.23;96417.75;5095556;28;20032;-79
2021/06/15 09:22:35;;;;;;;8.38;2.58;;;;;;;19.17;48.53;96425.56;5094362;28;20040;-78
2021/06/15 09:25:07;;;;;;;3.97;2.13;;;;;;;19.41;46.85;96444.16;5095791;28;20031;-78
2021/06/15 09:27:34;;;;;;;4.05;2.63;;;;;;;19.03;48.26;96366.91;5094852;28;20095;-78
2021/06/15 09:30:04;;;;;;;3.53;2.40;;;;;;;19.24;43.95;96397.50;5097050;28;20077;-78
2021/06/15 09:32:37;;;;;;;4.18;2.55;;;;;;;18.96;45.09;96344.69;5094676;28;20024;-78
2021/06/15 09:35:18;;;;;;;6.50;2.33;;;;;;;19.70;45.80;96426.09;5094015;28;20035;-79
2021/06/15 09:37:54;;;;;;;3.88;2.22;;;;;;;19.94;46.45;96435.63;5076449;28;20036;-78
2021/06/15 09:40:23;;;;;;;4.45;2.10;;;;;;;20.07;45.79;96430.97;5074817;28;20034;-78
2021/06/15 09:43:10;;;;;;;7.90;2.20;;;;;;;19.87;43.86;96390.13;5075004;28;20085;-78
2021/06/15 09:45:48;;;;;;;5.32;2.38;;;;;;;19.92;45.89;96364.53;5073248;28;20024;-79
2021/06/15 09:48:34;;;;;;;4.43;2.45;;;;;;;20.41;43.58;96420.25;5095040;28;20023;-80
2021/06/15 09:51:05;;;;;;;4.85;2.35;;;;;;;20.25;44.54;96379.13;5074706;28;20027;-78
2021/06/15 09:53:37;;;;;;;4.50;2.50;;;;;;;20.32;43.38;96365.47;5088167;28;20038;-81
2021/06/15 09:56:08;;;;;;;3.95;2.50;;;;;;;20.77;42.24;96411.00;5082141;28;20036;-79
2021/06/15 09:58:40;;;;;;;4.53;2.38;;;;;;;20.90;44.08;96408.31;5074469;28;20329;-79
2021/06/15 10:01:06;;;;;;;3.08;1.92;;;;;;;20.65;42.46;96375.31;5074974;28;20388;-79
2021/06/15 10:03:31;;;;;;;4.22;2.03;;;;;;;20.75;43.00;96356.34;5092093;28;20052;-79
2021/06/15 10:05:57;;;;;;;4.55;2.05;;;;;;;21.01;43.10;96352.91;5094856;28;20035;-79
2021/06/15 10:08:40;;;;;;;4.82;2.42;;;;;;;21.30;43.04;96359.47;5095198;28;20020;-79
2021/06/15 10:11:07;;;;;;;3.70;2.20;;;;;;;21.71;43.08;96394.13;5094722;28;20020;-80
2021/06/15 10:13:33;;;;;;;5.72;2.22;;;;;;;21.53;41.18;96348.75;5094623;28;20439;-79
2021/06/15 10:15:58;;;;;;;6.78;2.22;;;;;;;21.83;41.90;96367.75;5095841;28;20020;-82
2021/06/15 10:18:24;;;;;;;3.95;1.83;;;;;;;22.06;42.07;96375.63;5081752;28;20032;-82
2021/06/15 10:20:51;;;;;;;2.35;1.77;;;;;;;22.20;39.73;96354.97;5074759;28;20031;-82
2021/06/15 10:23:17;;;;;;;2.30;1.48;;;;;;;22.28;39.46;96341.97;5080785;28;20099;-82
2021/06/15 10:25:43;;;;;;;4.05;1.77;;;;;;;22.53;40.13;96352.75;5086495;28;20111;-82
2021/06/15 10:28:13;;;;;;;2.10;1.80;;;;;;;22.89;37.79;96386.16;5083242;28;20072;-82
2021/06/15 10:30:42;;;;;;;4.68;1.92;;;;;;;23.03;40.79;96384.81;5084051;28;20048;-81
2021/06/15 10:33:14;;;;;;;3.17;1.80;;;;;;;22.94;39.35;96344.47;5094783;28;20323;-81
2021/06/15 10:35:55;;;;;;;2.92;1.50;;;;;;;23.33;39.05;96383.53;5094254;28;20492;-81
2021/06/15 10:38:29;;;;;;;;;;;;;;;23.21;38.01;96372.00;5094598;28;20024;-81
2021/06/15 10:41:01;;;;;;;4.13;2.30;;;;;;;22.94;35.00;96341.72;5095685;28;19908;-82
2021/06/15 10:43:52;;;;;;;3.97;2.10;;;;;;;23.00;36.61;96367.22;5072815;28;20035;-82
2021/06/15 10:46:20;;;;;;;3.25;1.95;;;;;;;23.20;38.00;96360.19;5094557;28;20044;-82
2021/06/15 10:48:54;;;;;;;4.40;2.05;;;;;;;23.30;35.43;96360.47;5087759;28;20024;-83
2021/06/15 10:51:30;;;;;;;2.78;2.00;;;;;;;23.59;37.99;96354.91;5074141;28;20021;-80
2021/06/15 10:54:04;;;;;;;2.85;1.70;;;;;;;23.87;37.34;96362.50;5074558;28;20064;-80
2021/06/15 10:56:32;;;;;;;3.72;1.60;;;;;;;23.81;33.78;96345.25;5090723;28;20036;-80
2021/06/15 10:59:06;;;;;;;2.10;1.60;;;;;;;23.84;34.50;96322.00;5093688;28;20073;-80
2021/06/15 11:01:42;;;;;;;2.10;1.50;;;;;;;24.00;34.65;96345.72;5090863;28;20043;-83
2021/06/15 11:04:13;;;;;;;5.95;1.60;;;;;;;24.02;33.43;96345.91;5093694;28;20123;-82
2021/06/15 11:06:52;;;;;;;2.25;1.27;;;;;;;23.98;34.80;96309.50;5077857;28;20082;-82
2021/06/15 11:09:24;;;;;;;3.75;1.30;;;;;;;23.94;33.98;96318.16;5091311;28;20035;-82
2021/06/15 11:11:59;;;;;;;3.08;1.20;;;;;;;24.32;34.13;96334.19;5081765;28;20056;-81
2021/06/15 11:14:24;;;;;;;2.15;1.27;;;;;;;24.14;32.50;96296.44;5092318;28;20081;-82
2021/06/15 11:16:51;;;;;;;2.63;1.40;;;;;;;24.27;32.28;96343.41;5093734;28;20354;-82
2021/06/15 11:19:17;;;;;;;2.33;1.20;;;;;;;24.32;30.11;96339.75;5089701;28;20423;-82
2021/06/15 11:21:49;;;;;;;3.42;1.40;;;;;;;24.82;31.81;96337.44;5081592;28;20309;-82
2021/06/15 11:24:37;;;;;;;1.40;1.20;;;;;;;24.58;29.47;96302.63;5073917;28;20409;-82
2021/06/15 11:27:20;;;;;;;1.70;1.25;;;;;;;24.88;31.57;96292.84;5086086;28;20028;-82
2021/06/15 11:29:48;;;;;;;3.33;1.40;;;;;;;25.32;33.16;96296.16;5094272;28;20047;-82
2021/06/15 11:32:26;;;;;;;2.78;1.25;;;;;;;25.72;31.68;96323.28;5092593;28;20019;-82
2021/06/15 11:35:29;;;;;;;1.80;1.20;;;;;;;25.67;30.43;96329.81;5088988;28;20412;-81
2021/06/15 11:37:54;;;;;;;3.05;1.25;;;;;;;25.64;32.73;96275.34;5097437;28;20114;-82
2021/06/15 11:40:36;;;;;;;3.65;1.20;;;;;;;25.98;29.85;96313.78;5077737;28;20225;-82
2021/06/15 11:43:08;;;;;;;3.97;1.70;;;;;;;26.06;29.95;96315.25;5093104;28;20086;-82
2021/06/15 11:45:35;;;;;;;2.45;1.75;;;;;;;26.18;31.36;96289.78;5090357;28;20043;-83